Time;durP1;ratioP1;P1;durP2;ratioP2;P2;SDS_P1;SDS_P2;PMS_P1;PMS_P2;Temp;Humidity;BMP_temperature;BMP_pressure;BME280_temperature;BME280_humidity;BME280_pressure;Samples;Min_cycle;Max_cycle;Signal;HPM_P1;HPM_P2
2022/09/05 00:02:02;;;;;;;1.90;0.68;;;20.40;96.00;;;;;;5015724;28;20215;-57
2022/09/05 00:04:41;;;;;;;0.88;0.57;;;20.40;96.10;;;;;;5015573;28;20224;-57
2022/09/05 00:07:13;;;;;;;1.10;0.80;;;20.30;96.30;;;;;;5015433;28;20650;-58
2022/09/05 00:10:04;;;;;;;0.57;0.57;;;20.30;96.40;;;;;;5015313;28;20176;-59
2022/09/05 00:12:31;;;;;;;0.70;0.70;;;20.30;96.40;;;;;;5015363;28;20176;-59
2022/09/05 00:15:26;;;;;;;0.63;0.63;;;20.20;96.50;;;;;;5015223;28;20271;-59
2022/09/05 00:17:58;;;;;;;0.82;0.70;;;20.10;96.70;;;;;;5015052;28;20590;-58
2022/09/05 00:20:29;;;;;;;1.05;0.70;;;20.10;96.80;;;;;;5015184;28;20204;-56
2022/09/05 00:23:14;;;;;;;0.60;0.60;;;20.10;96.90;;;;;;5015524;28;20243;-58
2022/09/05 00:25:50;;;;;;;0.75;0.68;;;20.00;96.80;;;;;;5015114;28;20165;-58
2022/09/05 00:28:27;;;;;;;0.65;0.55;;;20.00;97.00;;;;;;5014890;28;20685;-58
2022/09/05 00:31:10;;;;;;;0.60;0.60;;;20.00;96.90;;;;;;5013870;28;20263;-58
2022/09/05 00:34:09;;;;;;;1.65;0.80;;;20.00;97.00;;;;;;5014998;28;20466;-57
2022/09/05 00:36:53;;;;;;;0.60;0.60;;;19.90;96.90;;;;;;5015026;28;20172;-58
2022/09/05 00:39:32;;;;;;;0.95;0.82;;;19.90;97.00;;;;;;5014922;28;20665;-58
2022/09/05 00:42:03;;;;;;;0.88;0.68;;;19.90;96.90;;;;;;5014986;28;20646;-58
2022/09/05 00:44:33;;;;;;;1.02;0.88;;;19.90;97.00;;;;;;5014964;28;20247;-58
2022/09/05 00:47:22;;;;;;;0.82;0.80;;;19.90;97.00;;;;;;5014817;28;20173;-58
2022/09/05 00:49:59;;;;;;;0.85;0.70;;;19.90;97.10;;;;;;5013610;28;20633;-57
2022/09/05 00:52:35;;;;;;;1.00;0.70;;;19.80;97.20;;;;;;5014613;28;20191;-58
2022/09/05 00:55:22;;;;;;;0.68;0.68;;;19.90;97.30;;;;;;5014673;28;20543;-57
2022/09/05 00:57:53;;;;;;;0.95;0.70;;;19.80;97.30;;;;;;5013317;28;20176;-56
2022/09/05 01:00:23;;;;;;;0.70;0.70;;;19.80;97.30;;;;;;5014484;28;20208;-58
2022/09/05 01:03:08;;;;;;;0.73;0.68;;;19.80;97.40;;;;;;5013110;28;20569;-57
2022/09/05 01:05:56;;;;;;;1.00;0.57;;;19.80;97.70;;;;;;5014263;28;20187;-58
2022/09/05 01:09:13;;;;;;;1.90;0.70;;;19.80;97.70;;;;;;5014315;28;20227;-58
2022/09/05 01:11:56;;;;;;;0.77;0.70;;;19.80;97.80;;;;;;4973122;28;20261;-57
2022/09/05 01:14:51;;;;;;;0.63;0.60;;;19.80;97.90;;;;;;5014250;28;20618;-58
2022/09/05 01:17:26;;;;;;;0.70;0.70;;;19.80;97.90;;;;;;5009525;28;20220;-58
2022/09/05 01:20:24;;;;;;;0.70;0.70;;;19.60;97.80;;;;;;5014121;28;20669;-58
2022/09/05 01:23:08;;;;;;;0.63;0.60;;;19.70;97.80;;;;;;5014066;28;20183;-58
2022/09/05 01:25:52;;;;;;;0.90;0.80;;;19.70;97.70;;;;;;5013737;28;20188;-58
2022/09/05 01:28:35;;;;;;;1.25;0.70;;;19.70;97.60;;;;;;5013924;28;20173;-58
2022/09/05 01:31:15;;;;;;;0.82;0.73;;;19.70;97.60;;;;;;5014136;28;20180;-57
2022/09/05 01:34:11;;;;;;;0.60;0.60;;;19.70;97.60;;;;;;5014071;28;20172;-57
2022/09/05 01:37:06;;;;;;;0.70;0.70;;;19.70;97.70;;;;;;5012657;28;20172;-58
2022/09/05 01:39:57;;;;;;;0.60;0.60;;;19.70;97.80;;;;;;5013695;28;20196;-57
2022/09/05 01:42:31;;;;;;;0.82;0.50;;;19.60;98.10;;;;;;5013841;28;20173;-58
2022/09/05 01:45:43;;;;;;;0.52;0.52;;;19.60;98.20;;;;;;5013812;28;20669;-58
2022/09/05 01:48:33;;;;;;;0.60;0.60;;;19.50;98.30;;;;;;5014137;28;20259;-58
2022/09/05 01:51:19;;;;;;;0.60;0.60;;;19.60;98.40;;;;;;5013588;28;20252;-58
2022/09/05 01:54:14;;;;;;;0.70;0.60;;;19.50;98.30;;;;;;5013638;28;20161;-58
2022/09/05 01:57:06;;;;;;;0.75;0.70;;;19.50;98.30;;;;;;5013752;28;20204;-57
2022/09/05 01:59:56;;;;;;;0.68;0.50;;;19.40;98.20;;;;;;5013325;28;20291;-59
2022/09/05 02:02:40;;;;;;;1.70;1.00;;;19.40;98.40;;;;;;5013382;28;20219;-58
2022/09/05 02:05:25;;;;;;;0.75;0.60;;;19.50;98.40;;;;;;5013572;28;20259;-58
2022/09/05 02:07:54;;;;;;;0.60;0.60;;;19.40;98.50;;;;;;5013583;28;20626;-58
2022/09/05 02:10:26;;;;;;;1.58;0.50;;;19.40;98.50;;;;;;5013545;28;20708;-57
2022/09/05 02:13:02;;;;;;;0.95;0.68;;;19.40;98.60;;;;;;5013526;28;20169;-57
2022/09/05 02:15:47;;;;;;;0.60;0.60;;;19.30;98.80;;;;;;5013362;28;20234;-58
2022/09/05 02:18:36;;;;;;;1.42;0.70;;;19.20;98.90;;;;;;5013359;28;20168;-58
2022/09/05 02:21:10;;;;;;;0.70;0.60;;;19.30;98.90;;;;;;5013088;28;20185;-57
2022/09/05 02:24:02;;;;;;;0.80;0.80;;;19.30;99.00;;;;;;5013421;28;20251;-57
2022/09/05 02:26:45;;;;;;;0.60;0.60;;;19.30;99.00;;;;;;5013333;28;20172;-58
2022/09/05 02:29:13;;;;;;;1.02;0.80;;;19.30;99.20;;;;;;5013214;28;20684;-58
2022/09/05 02:31:41;;;;;;;0.70;0.70;;;19.30;99.30;;;;;;5013412;28;20255;-57
2022/09/05 02:34:40;;;;;;;0.70;0.63;;;19.30;99.40;;;;;;5013333;28;20390;-58
2022/09/05 02:37:44;;;;;;;0.65;0.65;;;19.30;99.60;;;;;;5002295;28;20315;-58
2022/09/05 02:40:19;;;;;;;0.57;0.57;;;19.30;99.80;;;;;;5017085;28;20294;-58
2022/09/05 02:42:49;;;;;;;0.82;0.70;;;19.30;99.90;;;;;;5017029;28;20652;-59
2022/09/05 02:45:20;;;;;;;0.95;0.73;;;19.20;99.90;;;;;;5016968;28;20195;-58
2022/09/05 02:48:07;;;;;;;0.88;0.80;;;19.30;99.90;;;;;;5015588;28;20638;-58
2022/09/05 02:51:03;;;;;;;0.75;0.70;;;19.30;99.90;;;;;;5016888;28;20657;-58
2022/09/05 02:53:30;;;;;;;0.50;0.50;;;19.30;99.90;;;;;;5016896;28;20526;-57
2022/09/05 02:56:53;;;;;;;0.70;0.70;;;19.20;99.90;;;;;;5015490;28;20634;-58
2022/09/05 02:59:49;;;;;;;0.85;0.85;;;19.30;99.90;;;;;;4975430;28;20213;-58
2022/09/05 03:02:24;;;;;;;0.82;0.77;;;19.20;99.90;;;;;;4975442;28;20286;-58
2022/09/05 03:05:05;;;;;;;1.23;0.80;;;19.30;99.90;;;;;;5011022;28;20282;-58
2022/09/05 03:07:48;;;;;;;0.70;0.70;;;19.30;99.90;;;;;;5016943;28;20172;-58
2022/09/05 03:10:35;;;;;;;0.80;0.80;;;19.20;99.90;;;;;;5015377;28;20176;-58
2022/09/05 03:13:44;;;;;;;0.82;0.82;;;19.20;99.90;;;;;;5016373;28;20285;-58
2022/09/05 03:16:34;;;;;;;0.90;0.80;;;19.10;99.90;;;;;;5016446;28;20176;-58
2022/09/05 03:19:05;;;;;;;0.70;0.70;;;19.10;99.90;;;;;;5016247;28;20200;-58
2022/09/05 03:21:53;;;;;;;0.70;0.70;;;19.10;99.90;;;;;;5016390;28;20173;-58
2022/09/05 03:24:55;;;;;;;0.90;0.90;;;19.10;99.90;;;;;;5016272;28;20538;-58
2022/09/05 03:27:30;;;;;;;0.60;0.60;;;19.00;99.90;;;;;;5015954;28;20179;-58
2022/09/05 03:30:11;;;;;;;0.90;0.80;;;19.00;99.90;;;;;;5016114;28;20196;-58
2022/09/05 03:32:58;;;;;;;0.75;0.65;;;19.00;99.90;;;;;;5016120;28;20165;-57
2022/09/05 03:35:45;;;;;;;1.98;0.80;;;19.00;99.90;;;;;;5016076;28;20179;-57
2022/09/05 03:38:38;;;;;;;0.95;0.80;;;19.00;99.90;;;;;;5016268;28;20169;-58
2022/09/05 03:41:22;;;;;;;0.63;0.63;;;19.00;99.90;;;;;;5016071;28;20275;-58
2022/09/05 03:44:04;;;;;;;0.70;0.65;;;18.80;99.90;;;;;;5015867;28;20260;-58
2022/09/05 03:46:43;;;;;;;0.80;0.80;;;18.80;99.90;;;;;;5015655;28;20190;-58
2022/09/05 03:49:31;;;;;;;0.73;0.57;;;18.70;99.90;;;;;;5015889;28;20745;-58
2022/09/05 03:52:12;;;;;;;1.00;0.80;;;18.80;99.90;;;;;;5015704;28;20204;-58
2022/09/05 03:55:06;;;;;;;1.25;0.70;;;18.70;99.90;;;;;;5015913;28;20169;-58
2022/09/05 03:58:11;;;;;;;0.70;0.70;;;18.70;99.90;;;;;;5015691;28;20179;-58
2022/09/05 04:00:36;;;;;;;0.70;0.60;;;18.60;99.90;;;;;;5015489;28;20251;-57
2022/09/05 04:03:08;;;;;;;0.68;0.68;;;18.60;99.90;;;;;;5014444;28;20212;-59
2022/09/05 04:05:49;;;;;;;0.60;0.60;;;18.70;99.90;;;;;;5015656;28;20181;-58
2022/09/05 04:08:24;;;;;;;1.13;0.90;;;18.70;99.90;;;;;;5015353;28;20172;-58
2022/09/05 04:10:56;;;;;;;0.80;0.80;;;18.70;99.90;;;;;;5014264;28;20187;-58
2022/09/05 04:13:27;;;;;;;1.33;0.63;;;18.60;99.90;;;;;;5015776;28;20163;-58
2022/09/05 04:16:08;;;;;;;0.88;0.80;;;18.60;99.90;;;;;;5014223;28;20212;-58
2022/09/05 04:18:45;;;;;;;0.70;0.70;;;18.60;99.90;;;;;;5015254;28;20181;-58
2022/09/05 04:21:17;;;;;;;1.20;0.70;;;18.50;99.90;;;;;;5015300;28;20218;-58
2022/09/05 04:24:04;;;;;;;0.82;0.82;;;18.50;99.90;;;;;;5013920;28;20180;-58
2022/09/05 04:27:29;;;;;;;0.80;0.80;;;18.40;99.90;;;;;;5015144;28;20169;-58
2022/09/05 04:30:17;;;;;;;0.80;0.80;;;18.40;99.90;;;;;;4968260;28;20223;-58
2022/09/05 04:33:07;;;;;;;0.98;0.88;;;18.40;99.90;;;;;;5013905;28;20633;-58
2022/09/05 04:36:11;;;;;;;0.60;0.60;;;18.40;99.90;;;;;;5015293;28;20256;-62
2022/09/05 04:38:42;;;;;;;1.00;0.80;;;18.40;99.90;;;;;;5012674;28;20348;-58
2022/09/05 04:41:09;;;;;;;0.80;0.80;;;18.40;99.90;;;;;;5014935;28;20291;-58
2022/09/05 04:43:50;;;;;;;0.65;0.63;;;18.30;99.90;;;;;;5014861;28;20169;-58
2022/09/05 04:46:30;;;;;;;0.90;0.82;;;18.30;99.90;;;;;;5013517;28;20180;-58
2022/09/05 04:49:06;;;;;;;0.90;0.90;;;18.30;99.90;;;;;;5014870;28;20263;-58
2022/09/05 04:52:06;;;;;;;0.73;0.70;;;18.20;99.90;;;;;;5014809;28;20634;-58
2022/09/05 04:54:44;;;;;;;0.70;0.70;;;18.30;99.90;;;;;;5014602;28;20248;-58
2022/09/05 04:57:24;;;;;;;0.80;0.80;;;18.30;99.90;;;;;;5013214;28;20264;-60
2022/09/05 05:00:02;;;;;;;0.77;0.70;;;18.30;99.90;;;;;;5013762;28;20246;-58
2022/09/05 05:02:55;;;;;;;0.95;0.88;;;18.30;99.90;;;;;;5014402;28;20165;-57
2022/09/05 05:05:46;;;;;;;0.70;0.70;;;18.30;99.90;;;;;;5013029;28;20504;-57
2022/09/05 05:08:23;;;;;;;0.90;0.90;;;18.40;99.90;;;;;;5014469;28;20635;-57
2022/09/05 05:11:22;;;;;;;0.75;0.60;;;18.40;99.90;;;;;;5013080;28;20180;-56
2022/09/05 05:14:06;;;;;;;0.82;0.73;;;18.40;99.90;;;;;;5014240;28;20255;-56
2022/09/05 05:16:40;;;;;;;1.00;0.90;;;18.40;99.90;;;;;;5013031;28;20164;-57
2022/09/05 05:19:13;;;;;;;1.77;1.10;;;18.50;99.90;;;;;;5014145;28;20240;-57
2022/09/05 05:21:45;;;;;;;0.80;0.80;;;18.60;99.90;;;;;;5014212;28;20204;-57
2022/09/05 05:24:22;;;;;;;1.30;0.75;;;18.70;99.90;;;;;;5014081;28;20582;-57
2022/09/05 05:26:57;;;;;;;0.60;0.60;;;18.70;99.90;;;;;;5014183;28;20200;-57
2022/09/05 05:29:38;;;;;;;0.80;0.80;;;18.80;99.90;;;;;;5014238;28;20595;-58
2022/09/05 05:32:06;;;;;;;0.63;0.63;;;18.80;99.90;;;;;;5012664;28;20192;-58
2022/09/05 05:34:35;;;;;;;0.88;0.80;;;18.90;99.90;;;;;;5013795;28;20319;-58
2022/09/05 05:37:17;;;;;;;1.00;0.90;;;18.90;99.90;;;;;;5012764;28;20177;-57
2022/09/05 05:40:08;;;;;;;1.60;0.90;;;18.90;99.90;;;;;;5013794;28;20218;-57
2022/09/05 05:42:36;;;;;;;0.88;0.88;;;19.00;99.90;;;;;;5013746;28;20187;-57
2022/09/05 05:45:03;;;;;;;1.20;0.90;;;19.10;99.90;;;;;;5013890;28;20177;-57
2022/09/05 05:47:41;;;;;;;1.20;0.80;;;19.20;99.90;;;;;;5013553;28;20530;-57
2022/09/05 05:50:25;;;;;;;0.85;0.80;;;19.20;99.90;;;;;;5012806;28;20318;-57
2022/09/05 05:53:28;;;;;;;0.70;0.70;;;19.20;99.90;;;;;;5013647;28;20182;-57
2022/09/05 05:56:50;;;;;;;1.20;0.60;;;19.30;99.90;;;;;;5012695;28;20216;-58
2022/09/05 05:59:32;;;;;;;0.70;0.70;;;19.20;99.90;;;;;;4955754;28;20675;-57
2022/09/05 06:02:15;;;;;;;1.67;1.42;;;19.20;99.90;;;;;;4972414;28;20174;-58
2022/09/05 06:05:07;;;;;;;1.02;0.80;;;19.20;99.90;;;;;;5005541;28;20199;-57
2022/09/05 06:07:57;;;;;;;0.80;0.80;;;19.30;99.90;;;;;;5013586;28;20252;-58
2022/09/05 06:10:28;;;;;;;0.95;0.70;;;19.40;99.90;;;;;;5013548;28;20176;-57
2022/09/05 06:13:19;;;;;;;0.73;0.68;;;19.40;99.90;;;;;;5013637;28;20173;-57
2022/09/05 06:16:12;;;;;;;2.05;0.70;;;19.50;99.90;;;;;;5008029;28;20515;-57
2022/09/05 06:19:22;;;;;;;0.63;0.63;;;19.50;99.90;;;;;;5013423;28;20184;-57
2022/09/05 06:21:59;;;;;;;0.70;0.70;;;19.70;99.90;;;;;;5013397;28;20212;-58
2022/09/05 06:25:05;;;;;;;0.98;0.80;;;19.80;99.90;;;;;;5013285;28;20168;-56
2022/09/05 06:28:06;;;;;;;0.80;0.77;;;19.80;99.90;;;;;;5013321;28;20251;-57
2022/09/05 06:31:10;;;;;;;1.00;0.60;;;19.80;99.90;;;;;;5004230;28;20228;-57
2022/09/05 06:34:05;;;;;;;0.63;0.60;;;19.90;99.90;;;;;;5013383;28;20165;-58
2022/09/05 06:37:05;;;;;;;0.70;0.70;;;20.00;99.90;;;;;;5013247;28;20653;-57
2022/09/05 06:39:45;;;;;;;0.80;0.80;;;20.10;99.80;;;;;;5013326;28;20236;-57
2022/09/05 06:42:39;;;;;;;0.93;0.70;;;20.20;99.60;;;;;;5013271;28;20177;-58
2022/09/05 06:45:17;;;;;;;0.95;0.70;;;20.30;99.80;;;;;;5013187;28;20518;-57
2022/09/05 06:47:45;;;;;;;0.77;0.77;;;20.50;99.90;;;;;;5013289;28;20169;-57
2022/09/05 06:50:14;;;;;;;1.20;0.95;;;20.50;99.90;;;;;;5013166;28;20187;-57
2022/09/05 06:53:05;;;;;;;3.47;1.20;;;20.60;99.30;;;;;;5012854;28;20208;-57
2022/09/05 06:55:44;;;;;;;0.88;0.85;;;20.80;99.10;;;;;;5013021;28;20177;-57
2022/09/05 06:58:35;;;;;;;1.17;0.80;;;20.80;99.00;;;;;;5013041;28;20263;-57
2022/09/05 07:01:03;;;;;;;0.82;0.70;;;20.70;99.30;;;;;;5007228;28;20205;-57
2022/09/05 07:03:41;;;;;;;0.68;0.60;;;20.80;99.10;;;;;;5012822;28;20184;-57
2022/09/05 07:06:29;;;;;;;2.25;1.00;;;21.00;99.10;;;;;;5011550;28;20264;-57
2022/09/05 07:09:09;;;;;;;1.30;0.80;;;21.10;99.00;;;;;;5013013;28;20263;-57
2022/09/05 07:11:49;;;;;;;0.88;0.50;;;21.10;98.70;;;;;;5013135;28;20224;-57
2022/09/05 07:14:20;;;;;;;0.73;0.73;;;21.20;98.60;;;;;;5012880;28;20175;-57
2022/09/05 07:16:49;;;;;;;0.68;0.68;;;21.20;98.10;;;;;;5013331;28;20161;-58
2022/09/05 07:19:30;;;;;;;1.13;0.70;;;21.30;98.40;;;;;;5012770;28;20212;-57
2022/09/05 07:22:07;;;;;;;0.93;0.80;;;21.50;98.10;;;;;;5013847;28;20252;-57
2022/09/05 07:24:38;;;;;;;1.38;0.60;;;21.50;97.60;;;;;;5016263;28;20645;-58
2022/09/05 07:27:09;;;;;;;0.70;0.65;;;21.50;97.40;;;;;;5016198;28;20287;-57
2022/09/05 07:29:40;;;;;;;1.10;0.65;;;21.50;97.60;;;;;;5016270;28;20222;-57
2022/09/05 07:32:08;;;;;;;1.08;0.60;;;21.70;97.60;;;;;;5016095;28;20173;-58
2022/09/05 07:34:36;;;;;;;0.82;0.60;;;21.80;97.50;;;;;;5016079;28;20172;-57
2022/09/05 07:37:09;;;;;;;0.60;0.60;;;21.80;97.70;;;;;;5015963;28;20165;-58
2022/09/05 07:39:52;;;;;;;0.70;0.70;;;21.80;97.80;;;;;;5014663;28;20204;-57
2022/09/05 07:42:41;;;;;;;2.45;1.00;;;21.70;97.70;;;;;;5016125;28;20173;-58
2022/09/05 07:45:28;;;;;;;1.88;0.80;;;21.60;97.90;;;;;;5015940;28;20236;-57
2022/09/05 07:48:10;;;;;;;0.80;0.80;;;21.70;98.10;;;;;;5015601;28;20550;-58
2022/09/05 07:51:02;;;;;;;0.55;0.55;;;21.70;98.10;;;;;;5016006;28;20183;-57
2022/09/05 07:53:28;;;;;;;0.60;0.60;;;22.00;98.20;;;;;;5015825;28;20220;-57
2022/09/05 07:55:59;;;;;;;0.63;0.63;;;22.10;98.10;;;;;;5015913;28;20184;-58
2022/09/05 07:58:38;;;;;;;0.98;0.88;;;22.20;97.50;;;;;;4998301;28;20662;-57
2022/09/05 08:01:04;;;;;;;1.15;0.77;;;22.30;97.60;;;;;;5015753;28;20573;-58
2022/09/05 08:03:30;;;;;;;1.25;0.70;;;22.40;97.70;;;;;;5014437;28;20256;-58
2022/09/05 08:06:00;;;;;;;1.00;0.80;;;22.70;97.60;;;;;;5015776;28;20597;-57
2022/09/05 08:08:38;;;;;;;0.73;0.70;;;23.00;97.00;;;;;;5015377;28;20168;-57
2022/09/05 08:11:10;;;;;;;1.58;0.80;;;23.30;96.80;;;;;;5015444;28;20530;-58
2022/09/05 08:14:07;;;;;;;1.13;0.70;;;23.60;96.70;;;;;;5015492;28;20581;-58
2022/09/05 08:16:33;;;;;;;1.60;1.25;;;24.00;95.80;;;;;;5015320;28;20261;-57
2022/09/05 08:19:24;;;;;;;0.60;0.60;;;24.40;95.30;;;;;;5013998;28;20658;-57
2022/09/05 08:21:51;;;;;;;0.50;0.50;;;24.50;94.30;;;;;;5015258;28;20545;-57
2022/09/05 08:24:31;;;;;;;1.42;0.68;;;24.70;94.60;;;;;;5014121;28;20630;-57
2022/09/05 08:27:03;;;;;;;0.88;0.80;;;24.80;94.60;;;;;;5015104;28;20196;-58
2022/09/05 08:29:53;;;;;;;1.00;0.90;;;24.90;94.50;;;;;;5014649;28;20204;-57
2022/09/05 08:32:29;;;;;;;1.40;0.65;;;24.90;94.50;;;;;;5015127;28;20173;-57
2022/09/05 08:35:20;;;;;;;0.93;0.52;;;25.00;94.40;;;;;;5014082;28;20173;-57
2022/09/05 08:37:49;;;;;;;0.60;0.60;;;25.10;94.10;;;;;;5014851;28;20566;-58
2022/09/05 08:40:35;;;;;;;0.85;0.70;;;25.20;94.40;;;;;;5014956;28;20212;-57
2022/09/05 08:43:04;;;;;;;0.82;0.82;;;25.30;94.10;;;;;;5014947;28;20281;-58
2022/09/05 08:45:33;;;;;;;0.50;0.40;;;25.30;94.10;;;;;;5014728;28;20183;-57
2022/09/05 08:48:10;;;;;;;0.77;0.70;;;25.30;93.90;;;;;;5014797;28;20176;-58
2022/09/05 08:50:58;;;;;;;0.77;0.77;;;25.40;93.10;;;;;;5014632;28;20175;-58
2022/09/05 08:53:54;;;;;;;1.15;1.00;;;25.60;93.50;;;;;;5014807;28;20259;-58
2022/09/05 08:56:37;;;;;;;0.75;0.75;;;25.90;93.30;;;;;;5014497;28;20172;-56
2022/09/05 08:59:05;;;;;;;0.77;0.77;;;26.10;92.30;;;;;;5014386;28;20278;-58
2022/09/05 09:01:40;;;;;;;0.73;0.70;;;26.20;92.20;;;;;;5014527;28;20251;-57
2022/09/05 09:04:12;;;;;;;0.63;0.63;;;26.40;91.90;;;;;;5014441;28;20660;-57
2022/09/05 09:07:18;;;;;;;0.77;0.63;;;26.60;92.20;;;;;;5014500;28;20181;-58
2022/09/05 09:10:07;;;;;;;1.25;0.60;;;26.80;92.30;;;;;;5014514;28;20264;-58
2022/09/05 09:12:51;;;;;;;0.70;0.70;;;27.00;92.40;;;;;;5014421;28;20177;-58
2022/09/05 09:15:45;;;;;;;0.43;0.43;;;27.10;91.80;;;;;;5014098;28;20179;-58
2022/09/05 09:18:16;;;;;;;1.55;0.75;;;27.40;91.00;;;;;;5014374;28;20693;-57
2022/09/05 09:20:51;;;;;;;0.50;0.50;;;27.60;90.80;;;;;;5014082;28;20230;-60
2022/09/05 09:23:36;;;;;;;0.82;0.50;;;27.40;89.00;;;;;;5013995;28;20176;-58
2022/09/05 09:26:12;;;;;;;0.50;0.50;;;27.10;90.00;;;;;;5013943;28;20595;-57
2022/09/05 09:29:02;;;;;;;0.60;0.60;;;26.90;90.20;;;;;;5014096;28;20184;-54
2022/09/05 09:31:47;;;;;;;0.63;0.63;;;27.10;90.50;;;;;;5012821;28;20172;-58
2022/09/05 09:34:24;;;;;;;0.60;0.60;;;27.30;89.90;;;;;;5014347;28;20255;-57
2022/09/05 09:37:35;;;;;;;0.60;0.60;;;27.60;88.70;;;;;;5012800;28;20172;-58
2022/09/05 09:40:31;;;;;;;0.50;0.50;;;27.70;89.30;;;;;;5003497;28;20208;-58
2022/09/05 09:43:12;;;;;;;0.52;0.50;;;27.80;89.60;;;;;;5013857;28;20172;-58
2022/09/05 09:45:51;;;;;;;0.60;0.60;;;27.80;88.50;;;;;;5012245;28;20565;-58
2022/09/05 09:48:50;;;;;;;1.35;0.60;;;28.20;88.70;;;;;;5013620;28;20222;-58
2022/09/05 09:51:42;;;;;;;0.82;0.50;;;28.40;88.60;;;;;;5013833;28;20252;-58
2022/09/05 09:54:26;;;;;;;0.38;0.38;;;28.60;88.60;;;;;;4997876;28;20192;-58
2022/09/05 09:57:29;;;;;;;1.20;0.77;;;28.70;87.60;;;;;;5013851;28;20177;-58
2022/09/05 10:00:06;;;;;;;0.68;0.68;;;29.00;86.50;;;;;;5013635;28;20310;-58
2022/09/05 10:02:35;;;;;;;0.98;0.80;;;28.90;86.20;;;;;;5013653;28;20174;-58
2022/09/05 10:05:31;;;;;;;0.65;0.60;;;29.10;86.10;;;;;;5013501;28;20271;-58
2022/09/05 10:08:14;;;;;;;0.52;0.52;;;29.40;86.80;;;;;;5013530;28;20538;-58
2022/09/05 10:10:55;;;;;;;0.68;0.60;;;29.40;85.10;;;;;;5013674;28;20168;-57
2022/09/05 10:13:29;;;;;;;0.60;0.60;;;29.60;86.40;;;;;;5013423;28;20169;-58
2022/09/05 10:16:22;;;;;;;0.60;0.50;;;29.20;85.20;;;;;;5013845;28;20172;-58
2022/09/05 10:18:54;;;;;;;0.98;0.55;;;29.30;87.00;;;;;;5013485;28;20235;-57
2022/09/05 10:21:33;;;;;;;0.95;0.60;;;29.00;85.80;;;;;;5013331;28;20173;-58
2022/09/05 10:24:17;;;;;;;0.45;0.45;;;28.60;86.50;;;;;;5013299;28;20175;-58
2022/09/05 10:27:04;;;;;;;0.50;0.50;;;28.60;86.50;;;;;;5013468;28;20226;-58
2022/09/05 10:29:54;;;;;;;0.70;0.70;;;28.40;86.10;;;;;;5013109;28;20199;-58
2022/09/05 10:32:45;;;;;;;0.63;0.63;;;28.40;87.40;;;;;;5013113;28;20172;-57
2022/09/05 10:35:34;;;;;;;1.63;0.75;;;28.30;87.00;;;;;;5013377;28;20169;-57
2022/09/05 10:38:03;;;;;;;0.82;0.80;;;28.40;86.30;;;;;;5013282;28;20169;-58
2022/09/05 10:40:32;;;;;;;0.50;0.50;;;28.60;87.60;;;;;;5011839;28;20209;-58
2022/09/05 10:43:10;;;;;;;0.85;0.80;;;29.00;87.90;;;;;;5013031;28;20525;-58
2022/09/05 10:46:14;;;;;;;0.95;0.90;;;29.10;86.20;;;;;;5013176;28;20259;-57
2022/09/05 10:48:49;;;;;;;0.80;0.60;;;29.50;85.90;;;;;;5013216;28;20171;-58
2022/09/05 10:51:21;;;;;;;0.90;0.73;;;29.40;84.80;;;;;;5013081;28;20183;-58
2022/09/05 10:54:11;;;;;;;1.17;0.68;;;29.00;85.00;;;;;;5012984;28;20648;-58
2022/09/05 10:56:44;;;;;;;0.75;0.60;;;29.00;85.40;;;;;;5013451;28;20208;-58
2022/09/05 10:59:24;;;;;;;0.50;0.50;;;29.00;85.80;;;;;;5016661;28;20231;-58
2022/09/05 11:02:06;;;;;;;0.68;0.50;;;29.30;85.50;;;;;;5016966;28;20169;-58
2022/09/05 11:04:47;;;;;;;0.55;0.50;;;29.70;85.00;;;;;;5015590;28;20638;-57
2022/09/05 11:07:27;;;;;;;0.77;0.70;;;30.00;83.70;;;;;;5016673;28;20177;-58
2022/09/05 11:10:07;;;;;;;0.60;0.60;;;30.20;82.40;;;;;;5016445;28;20177;-57
2022/09/05 11:12:39;;;;;;;0.55;0.55;;;30.10;83.30;;;;;;5016752;28;20177;-58
2022/09/05 11:15:31;;;;;;;0.63;0.52;;;30.10;83.40;;;;;;5016400;28;20173;-58
2022/09/05 11:18:07;;;;;;;0.55;0.50;;;30.10;83.20;;;;;;5016537;28;20195;-58
2022/09/05 11:20:47;;;;;;;0.40;0.40;;;30.20;82.10;;;;;;5015239;28;20208;-58
2022/09/05 11:23:29;;;;;;;0.40;0.40;;;30.10;83.10;;;;;;5016494;28;20196;-57
2022/09/05 11:26:03;;;;;;;0.50;0.50;;;30.40;82.40;;;;;;5016439;28;20165;-57
2022/09/05 11:28:52;;;;;;;0.65;0.55;;;30.80;81.80;;;;;;5016212;28;20177;-57
2022/09/05 11:31:26;;;;;;;0.80;0.70;;;31.10;80.80;;;;;;5016424;28;20169;-58
2022/09/05 11:34:05;;;;;;;0.68;0.60;;;31.20;80.90;;;;;;5014918;28;20630;-58
2022/09/05 11:36:32;;;;;;;0.73;0.73;;;31.30;82.10;;;;;;5014908;28;20172;-58
2022/09/05 11:39:29;;;;;;;0.52;0.52;;;31.10;80.90;;;;;;5015848;28;20197;-57
2022/09/05 11:42:13;;;;;;;0.55;0.55;;;30.60;80.60;;;;;;5016145;28;20177;-58
2022/09/05 11:45:03;;;;;;;0.55;0.55;;;30.20;81.20;;;;;;5016183;28;20177;-58
2022/09/05 11:47:59;;;;;;;0.60;0.57;;;30.00;80.90;;;;;;5015902;28;20184;-58
2022/09/05 11:50:58;;;;;;;1.20;0.75;;;30.00;81.40;;;;;;5016064;28;20515;-58
2022/09/05 11:53:59;;;;;;;1.10;0.50;;;30.20;82.30;;;;;;5015791;28;20182;-58
2022/09/05 11:56:27;;;;;;;0.80;0.50;;;30.50;81.80;;;;;;5015828;28;20176;-58
2022/09/05 11:59:02;;;;;;;2.20;0.50;;;30.70;80.90;;;;;;5015572;28;20550;-58
2022/09/05 12:01:46;;;;;;;0.40;0.40;;;30.90;81.30;;;;;;5015791;28;20231;-58
2022/09/05 12:04:17;;;;;;;1.13;0.60;;;30.70;81.00;;;;;;5014302;28;20179;-58
2022/09/05 12:06:58;;;;;;;0.50;0.45;;;30.90;80.40;;;;;;5015840;28;20634;-58
2022/09/05 12:09:43;;;;;;;0.70;0.70;;;31.00;79.20;;;;;;5015293;28;20702;-57
2022/09/05 12:12:44;;;;;;;0.50;0.50;;;31.10;79.60;;;;;;5015560;28;20180;-58
2022/09/05 12:15:26;;;;;;;1.13;0.65;;;30.80;79.70;;;;;;4992794;28;20195;-58
2022/09/05 12:18:15;;;;;;;0.68;0.63;;;30.60;78.40;;;;;;5015387;28;20164;-58
2022/09/05 12:20:59;;;;;;;0.60;0.60;;;30.60;78.50;;;;;;5015133;28;20209;-58
2022/09/05 12:23:37;;;;;;;0.52;0.52;;;30.60;79.10;;;;;;5014116;28;20263;-57
2022/09/05 12:26:14;;;;;;;1.42;0.60;;;30.50;79.60;;;;;;5015150;28;20649;-58
2022/09/05 12:29:09;;;;;;;1.75;0.70;;;30.20;78.70;;;;;;5014965;28;20515;-58
2022/09/05 12:31:40;;;;;;;0.63;0.55;;;30.40;80.10;;;;;;5009688;28;20189;-57
2022/09/05 12:34:12;;;;;;;0.52;0.52;;;30.50;79.00;;;;;;5013838;28;20230;-58
2022/09/05 12:36:42;;;;;;;0.63;0.60;;;30.40;78.20;;;;;;5015129;28;20169;-58
2022/09/05 12:39:28;;;;;;;0.70;0.65;;;30.60;79.10;;;;;;5014810;28;20270;-58
2022/09/05 12:42:03;;;;;;;0.52;0.50;;;30.70;78.30;;;;;;5014881;28;20665;-58
2022/09/05 12:44:53;;;;;;;0.45;0.40;;;30.50;77.60;;;;;;5014833;28;20206;-58
2022/09/05 12:47:22;;;;;;;0.57;0.50;;;30.50;78.40;;;;;;5014681;28;20602;-57
2022/09/05 12:50:16;;;;;;;1.38;0.43;;;30.50;78.60;;;;;;5013390;28;20185;-58
2022/09/05 12:53:05;;;;;;;0.50;0.50;;;30.40;78.10;;;;;;5014885;28;20177;-58
2022/09/05 12:55:46;;;;;;;0.85;0.80;;;30.50;79.10;;;;;;5014701;28;20172;-58
2022/09/05 12:58:25;;;;;;;0.50;0.50;;;30.50;79.70;;;;;;5014439;28;20184;-57
2022/09/05 13:00:56;;;;;;;0.63;0.50;;;30.40;78.30;;;;;;5013386;28;20267;-58
2022/09/05 13:03:29;;;;;;;1.10;0.68;;;30.40;79.10;;;;;;5014647;28;20252;-57
2022/09/05 13:06:08;;;;;;;0.63;0.63;;;30.30;78.90;;;;;;5014732;28;20188;-58
2022/09/05 13:08:48;;;;;;;0.43;0.43;;;29.90;78.30;;;;;;5014406;28;20200;-57
2022/09/05 13:11:18;;;;;;;0.60;0.60;;;30.10;79.50;;;;;;5014522;28;20577;-57
2022/09/05 13:13:52;;;;;;;1.10;0.70;;;30.20;80.40;;;;;;5014563;28;20692;-57
2022/09/05 13:16:21;;;;;;;0.40;0.40;;;30.20;80.30;;;;;;5014408;28;20526;-57
2022/09/05 13:18:50;;;;;;;0.50;0.50;;;30.30;80.20;;;;;;5014107;28;20196;-57
2022/09/05 13:21:24;;;;;;;0.40;0.40;;;30.30;80.00;;;;;;5013517;28;20168;-58
2022/09/05 13:24:04;;;;;;;0.40;0.40;;;30.20;78.70;;;;;;5014337;28;20178;-57
2022/09/05 13:26:56;;;;;;;0.75;0.40;;;30.10;80.00;;;;;;5014476;28;20654;-58
2022/09/05 13:29:54;;;;;;;0.60;0.60;;;30.10;79.10;;;;;;5014073;28;20283;-58
2022/09/05 13:32:44;;;;;;;0.50;0.50;;;29.90;78.50;;;;;;5009055;28;20189;-58
2022/09/05 13:35:16;;;;;;;0.55;0.52;;;29.80;79.40;;;;;;5014029;28;20180;-58
2022/09/05 13:37:54;;;;;;;0.50;0.50;;;29.70;78.10;;;;;;5013961;28;20507;-57
2022/09/05 13:40:24;;;;;;;0.68;0.68;;;29.60;79.10;;;;;;5014084;28;20216;-57
2022/09/05 13:43:12;;;;;;;0.60;0.60;;;29.70;79.30;;;;;;5013804;28;20180;-57
2022/09/05 13:45:56;;;;;;;0.60;0.60;;;29.80;77.90;;;;;;5012773;28;20263;-58
2022/09/05 13:48:46;;;;;;;1.10;0.80;;;29.40;78.10;;;;;;5012490;28;20183;-57
2022/09/05 13:51:18;;;;;;;0.63;0.60;;;29.60;79.10;;;;;;5013973;28;20169;-58
2022/09/05 13:53:52;;;;;;;0.65;0.65;;;29.80;79.10;;;;;;5013992;28;20271;-57
2022/09/05 13:56:27;;;;;;;0.60;0.60;;;30.00;79.00;;;;;;5013708;28;20179;-57
2022/09/05 13:59:00;;;;;;;0.65;0.65;;;30.10;78.20;;;;;;5013508;28;20212;-58
2022/09/05 14:02:15;;;;;;;0.70;0.65;;;29.90;76.80;;;;;;5012545;28;20621;-57
2022/09/05 14:04:56;;;;;;;0.50;0.50;;;30.10;78.00;;;;;;5013619;28;20260;-58
2022/09/05 14:07:44;;;;;;;0.60;0.60;;;30.30;78.90;;;;;;5013708;28;20176;-58